sensor_id;sensor_type;location;lat;lon;timestamp;temperature;humidity
61255;DHT22;47128;47.530;8.584;2023-03-15T00:00:51;5.50;99.90
61255;DHT22;47128;47.530;8.584;2023-03-15T00:03:18;5.40;99.90
61255;DHT22;47128;47.530;8.584;2023-03-15T00:05:44;5.40;99.90
61255;DHT22;47128;47.530;8.584;2023-03-15T00:08:10;5.40;99.90
61255;DHT22;47128;47.530;8.584;2023-03-15T00:10:40;5.40;99.90
61255;DHT22;47128;47.530;8.584;2023-03-15T00:13:06;5.40;99.90
61255;DHT22;47128;47.530;8.584;2023-03-15T00:15:31;5.40;99.90
61255;DHT22;47128;47.530;8.584;2023-03-15T00:17:57;5.40;99.90
61255;DHT22;47128;47.530;8.584;2023-03-15T00:20:22;5.40;99.90
61255;DHT22;47128;47.530;8.584;2023-03-15T00:22:48;5.40;99.90
61255;DHT22;47128;47.530;8.584;2023-03-15T00:25:13;5.40;99.90
61255;DHT22;47128;47.530;8.584;2023-03-15T00:27:39;5.40;99.90
61255;DHT22;47128;47.530;8.584;2023-03-15T00:30:05;5.40;99.90
61255;DHT22;47128;47.530;8.584;2023-03-15T00:32:30;5.40;99.90
61255;DHT22;47128;47.530;8.584;2023-03-15T00:34:56;5.40;99.90
61255;DHT22;47128;47.530;8.584;2023-03-15T00:37:21;5.40;99.90
61255;DHT22;47128;47.530;8.584;2023-03-15T00:39:49;5.40;99.90
61255;DHT22;47128;47.530;8.584;2023-03-15T00:42:15;5.40;99.90
61255;DHT22;47128;47.530;8.584;2023-03-15T00:44:41;5.40;99.90
61255;DHT22;47128;47.530;8.584;2023-03-15T00:47:08;5.40;99.90
61255;DHT22;47128;47.530;8.584;2023-03-15T00:49:33;5.50;99.90
61255;DHT22;47128;47.530;8.584;2023-03-15T00:51:59;5.50;99.90
61255;DHT22;47128;47.530;8.584;2023-03-15T00:54:24;5.50;99.90
61255;DHT22;47128;47.530;8.584;2023-03-15T00:56:50;5.50;99.90
61255;DHT22;47128;47.530;8.584;2023-03-15T00:59:15;5.50;99.90
61255;DHT22;47128;47.530;8.584;2023-03-15T01:01:41;5.50;99.90
61255;DHT22;47128;47.530;8.584;2023-03-15T01:04:09;5.50;99.90
61255;DHT22;47128;47.530;8.584;2023-03-15T01:06:36;5.50;99.90
61255;DHT22;47128;47.530;8.584;2023-03-15T01:09:02;5.50;99.90
61255;DHT22;47128;47.530;8.584;2023-03-15T01:11:27;5.50;99.90
61255;DHT22;47128;47.530;8.584;2023-03-15T01:13:53;5.50;99.90
61255;DHT22;47128;47.530;8.584;2023-03-15T01:16:20;5.40;99.90
61255;DHT22;47128;47.530;8.584;2023-03-15T01:18:45;5.40;99.90
61255;DHT22;47128;47.530;8.584;2023-03-15T01:21:12;5.30;99.90
61255;DHT22;47128;47.530;8.584;2023-03-15T01:23:37;5.30;99.90
61255;DHT22;47128;47.530;8.584;2023-03-15T01:26:04;5.30;99.90
61255;DHT22;47128;47.530;8.584;2023-03-15T01:28:30;5.20;99.90
61255;DHT22;47128;47.530;8.584;2023-03-15T01:30:55;5.20;99.90
61255;DHT22;47128;47.530;8.584;2023-03-15T01:33:21;5.20;99.90
61255;DHT22;47128;47.530;8.584;2023-03-15T01:35:47;5.20;99.90
61255;DHT22;47128;47.530;8.584;2023-03-15T01:38:12;5.20;99.90
61255;DHT22;47128;47.530;8.584;2023-03-15T01:40:42;5.20;99.90
61255;DHT22;47128;47.530;8.584;2023-03-15T01:48:17;5.10;99.90
61255;DHT22;47128;47.530;8.584;2023-03-15T01:50:42;5.10;99.90
61255;DHT22;47128;47.530;8.584;2023-03-15T01:53:09;5.10;99.90
61255;DHT22;47128;47.530;8.584;2023-03-15T01:55:34;5.00;99.90
61255;DHT22;47128;47.530;8.584;2023-03-15T01:58:00;5.00;99.90
61255;DHT22;47128;47.530;8.584;2023-03-15T02:00:31;4.90;99.90
61255;DHT22;47128;47.530;8.584;2023-03-15T02:03:11;4.90;99.90
61255;DHT22;47128;47.530;8.584;2023-03-15T02:05:41;4.90;99.90
61255;DHT22;47128;47.530;8.584;2023-03-15T02:08:11;4.90;99.90
61255;DHT22;47128;47.530;8.584;2023-03-15T02:10:44;4.80;99.90
61255;DHT22;47128;47.530;8.584;2023-03-15T02:13:11;4.80;99.90
61255;DHT22;47128;47.530;8.584;2023-03-15T02:15:38;4.70;99.90
61255;DHT22;47128;47.530;8.584;2023-03-15T02:18:03;4.70;99.90
61255;DHT22;47128;47.530;8.584;2023-03-15T02:20:53;4.70;99.90
61255;DHT22;47128;47.530;8.584;2023-03-15T02:23:19;4.60;99.90
61255;DHT22;47128;47.530;8.584;2023-03-15T02:28:12;4.50;99.90
61255;DHT22;47128;47.530;8.584;2023-03-15T02:30:37;4.50;99.90
61255;DHT22;47128;47.530;8.584;2023-03-15T02:33:04;4.30;99.90
61255;DHT22;47128;47.530;8.584;2023-03-15T02:35:32;4.10;99.90
61255;DHT22;47128;47.530;8.584;2023-03-15T02:37:58;4.10;99.90
61255;DHT22;47128;47.530;8.584;2023-03-15T02:40:26;4.00;99.90
61255;DHT22;47128;47.530;8.584;2023-03-15T02:42:54;3.80;99.90
61255;DHT22;47128;47.530;8.584;2023-03-15T02:45:21;3.70;99.90
61255;DHT22;47128;47.530;8.584;2023-03-15T02:47:47;3.70;99.90
61255;DHT22;47128;47.530;8.584;2023-03-15T02:50:13;3.70;99.90
61255;DHT22;47128;47.530;8.584;2023-03-15T02:52:38;3.60;99.90
61255;DHT22;47128;47.530;8.584;2023-03-15T02:55:04;3.60;99.90
61255;DHT22;47128;47.530;8.584;2023-03-15T02:57:29;3.50;99.90
61255;DHT22;47128;47.530;8.584;2023-03-15T02:59:55;3.50;99.90
61255;DHT22;47128;47.530;8.584;2023-03-15T03:02:21;3.30;99.90
61255;DHT22;47128;47.530;8.584;2023-03-15T03:04:48;3.20;99.90
61255;DHT22;47128;47.530;8.584;2023-03-15T03:07:13;3.20;99.90
61255;DHT22;47128;47.530;8.584;2023-03-15T03:09:39;3.20;99.90
61255;DHT22;47128;47.530;8.584;2023-03-15T03:12:04;3.10;99.90
61255;DHT22;47128;47.530;8.584;2023-03-15T03:14:30;3.00;99.90
61255;DHT22;47128;47.530;8.584;2023-03-15T03:16:56;3.00;99.90
61255;DHT22;47128;47.530;8.584;2023-03-15T03:19:22;3.00;99.90
61255;DHT22;47128;47.530;8.584;2023-03-15T03:21:50;2.90;99.90
61255;DHT22;47128;47.530;8.584;2023-03-15T03:24:16;2.90;99.90
61255;DHT22;47128;47.530;8.584;2023-03-15T03:26:42;2.90;99.90
61255;DHT22;47128;47.530;8.584;2023-03-15T03:29:10;2.90;99.90
61255;DHT22;47128;47.530;8.584;2023-03-15T03:31:36;2.90;99.90
61255;DHT22;47128;47.530;8.584;2023-03-15T03:34:01;2.80;99.90
61255;DHT22;47128;47.530;8.584;2023-03-15T03:36:27;2.80;99.90
61255;DHT22;47128;47.530;8.584;2023-03-15T03:38:52;2.80;99.90
61255;DHT22;47128;47.530;8.584;2023-03-15T03:41:18;2.70;99.90
61255;DHT22;47128;47.530;8.584;2023-03-15T03:43:45;2.70;99.90
61255;DHT22;47128;47.530;8.584;2023-03-15T03:46:11;2.60;99.90
61255;DHT22;47128;47.530;8.584;2023-03-15T03:51:03;2.50;99.90
61255;DHT22;47128;47.530;8.584;2023-03-15T03:53:29;2.40;99.90
61255;DHT22;47128;47.530;8.584;2023-03-15T03:55:54;2.40;99.90
61255;DHT22;47128;47.530;8.584;2023-03-15T04:00:46;2.40;99.90
61255;DHT22;47128;47.530;8.584;2023-03-15T04:03:11;2.40;99.90
61255;DHT22;47128;47.530;8.584;2023-03-15T04:05:37;2.30;99.90
61255;DHT22;47128;47.530;8.584;2023-03-15T04:08:06;2.40;99.90
61255;DHT22;47128;47.530;8.584;2023-03-15T04:10:31;2.30;99.90
61255;DHT22;47128;47.530;8.584;2023-03-15T04:12:59;2.20;99.90
61255;DHT22;47128;47.530;8.584;2023-03-15T04:15:25;2.10;99.90
61255;DHT22;47128;47.530;8.584;2023-03-15T04:17:50;2.00;99.90
61255;DHT22;47128;47.530;8.584;2023-03-15T04:20:23;2.10;99.90
61255;DHT22;47128;47.530;8.584;2023-03-15T04:22:49;2.00;99.90
61255;DHT22;47128;47.530;8.584;2023-03-15T04:25:18;2.00;99.90
61255;DHT22;47128;47.530;8.584;2023-03-15T04:27:44;2.00;99.90
61255;DHT22;47128;47.530;8.584;2023-03-15T04:30:14;2.00;99.90
61255;DHT22;47128;47.530;8.584;2023-03-15T04:32:40;2.00;99.90
61255;DHT22;47128;47.530;8.584;2023-03-15T04:35:06;2.00;99.90
61255;DHT22;47128;47.530;8.584;2023-03-15T04:37:32;1.90;99.90
61255;DHT22;47128;47.530;8.584;2023-03-15T04:39:57;1.90;99.90
61255;DHT22;47128;47.530;8.584;2023-03-15T04:42:24;1.80;99.90
61255;DHT22;47128;47.530;8.584;2023-03-15T04:44:52;1.80;99.90
61255;DHT22;47128;47.530;8.584;2023-03-15T04:47:18;1.80;99.90
61255;DHT22;47128;47.530;8.584;2023-03-15T04:49:46;1.80;99.90
61255;DHT22;47128;47.530;8.584;2023-03-15T04:52:12;1.80;99.90
61255;DHT22;47128;47.530;8.584;2023-03-15T04:57:40;1.80;99.90
61255;DHT22;47128;47.530;8.584;2023-03-15T05:00:06;2.00;99.90
61255;DHT22;47128;47.530;8.584;2023-03-15T05:02:33;2.00;99.90
61255;DHT22;47128;47.530;8.584;2023-03-15T05:05:00;2.00;99.90
61255;DHT22;47128;47.530;8.584;2023-03-15T05:07:25;2.00;99.90
61255;DHT22;47128;47.530;8.584;2023-03-15T05:09:51;2.10;99.90
61255;DHT22;47128;47.530;8.584;2023-03-15T05:12:17;2.00;99.90
61255;DHT22;47128;47.530;8.584;2023-03-15T05:14:43;2.00;99.90
61255;DHT22;47128;47.530;8.584;2023-03-15T05:17:08;2.00;99.90
61255;DHT22;47128;47.530;8.584;2023-03-15T05:19:34;2.00;99.90
61255;DHT22;47128;47.530;8.584;2023-03-15T05:22:00;2.00;99.90
61255;DHT22;47128;47.530;8.584;2023-03-15T05:24:26;2.00;99.90
61255;DHT22;47128;47.530;8.584;2023-03-15T05:26:51;1.90;99.90
61255;DHT22;47128;47.530;8.584;2023-03-15T05:29:19;1.80;99.90
61255;DHT22;47128;47.530;8.584;2023-03-15T05:31:46;1.80;99.90
61255;DHT22;47128;47.530;8.584;2023-03-15T05:34:11;1.70;99.90
61255;DHT22;47128;47.530;8.584;2023-03-15T05:36:37;1.70;99.90
61255;DHT22;47128;47.530;8.584;2023-03-15T05:39:02;1.70;99.90
61255;DHT22;47128;47.530;8.584;2023-03-15T05:41:29;1.70;99.90
61255;DHT22;47128;47.530;8.584;2023-03-15T05:43:55;1.70;99.90
61255;DHT22;47128;47.530;8.584;2023-03-15T05:46:20;1.70;99.90
61255;DHT22;47128;47.530;8.584;2023-03-15T05:48:47;1.70;99.90
61255;DHT22;47128;47.530;8.584;2023-03-15T05:51:12;1.70;99.90
61255;DHT22;47128;47.530;8.584;2023-03-15T05:53:38;1.70;99.90
61255;DHT22;47128;47.530;8.584;2023-03-15T05:56:04;1.70;99.90
61255;DHT22;47128;47.530;8.584;2023-03-15T05:58:29;1.60;99.90
61255;DHT22;47128;47.530;8.584;2023-03-15T06:00:55;1.60;99.90
61255;DHT22;47128;47.530;8.584;2023-03-15T06:03:21;1.60;99.90
61255;DHT22;47128;47.530;8.584;2023-03-15T06:05:47;1.60;99.90
61255;DHT22;47128;47.530;8.584;2023-03-15T06:08:12;1.50;99.90
61255;DHT22;47128;47.530;8.584;2023-03-15T06:10:38;1.60;99.90
61255;DHT22;47128;47.530;8.584;2023-03-15T06:13:04;1.70;99.90
61255;DHT22;47128;47.530;8.584;2023-03-15T06:15:30;1.70;99.90
61255;DHT22;47128;47.530;8.584;2023-03-15T06:17:55;1.80;99.90
61255;DHT22;47128;47.530;8.584;2023-03-15T06:20:21;1.80;99.90
61255;DHT22;47128;47.530;8.584;2023-03-15T06:22:46;1.80;99.90
61255;DHT22;47128;47.530;8.584;2023-03-15T06:25:12;1.80;99.90
61255;DHT22;47128;47.530;8.584;2023-03-15T06:27:38;1.80;99.90
61255;DHT22;47128;47.530;8.584;2023-03-15T06:30:05;1.70;99.90
61255;DHT22;47128;47.530;8.584;2023-03-15T06:32:31;1.80;99.90
61255;DHT22;47128;47.530;8.584;2023-03-15T06:38:01;1.80;99.90
61255;DHT22;47128;47.530;8.584;2023-03-15T06:40:27;1.80;99.90
61255;DHT22;47128;47.530;8.584;2023-03-15T06:42:53;1.90;99.90
61255;DHT22;47128;47.530;8.584;2023-03-15T06:45:19;1.90;99.90
61255;DHT22;47128;47.530;8.584;2023-03-15T06:47:44;1.90;99.90
61255;DHT22;47128;47.530;8.584;2023-03-15T06:50:10;1.90;99.90
61255;DHT22;47128;47.530;8.584;2023-03-15T06:52:36;2.00;99.90
61255;DHT22;47128;47.530;8.584;2023-03-15T06:55:03;2.00;99.90
61255;DHT22;47128;47.530;8.584;2023-03-15T06:57:29;2.00;99.90
61255;DHT22;47128;47.530;8.584;2023-03-15T06:59:54;2.00;99.90
61255;DHT22;47128;47.530;8.584;2023-03-15T07:05:39;2.10;99.90
61255;DHT22;47128;47.530;8.584;2023-03-15T07:13:45;2.40;99.90
61255;DHT22;47128;47.530;8.584;2023-03-15T07:19:14;2.50;99.90
61255;DHT22;47128;47.530;8.584;2023-03-15T07:30:41;2.90;99.90
61255;DHT22;47128;47.530;8.584;2023-03-15T07:33:16;3.00;99.90
61255;DHT22;47128;47.530;8.584;2023-03-15T07:41:35;3.20;99.90
61255;DHT22;47128;47.530;8.584;2023-03-15T07:47:23;3.40;99.90
61255;DHT22;47128;47.530;8.584;2023-03-15T07:52:51;3.60;99.90
61255;DHT22;47128;47.530;8.584;2023-03-15T08:04:31;4.00;99.90
61255;DHT22;47128;47.530;8.584;2023-03-15T08:33:51;5.20;99.70
61255;DHT22;47128;47.530;8.584;2023-03-15T08:51:45;6.40;96.30
61255;DHT22;47128;47.530;8.584;2023-03-15T08:54:13;7.10;95.60
61255;DHT22;47128;47.530;8.584;2023-03-15T08:59:42;8.70;93.00
61255;DHT22;47128;47.530;8.584;2023-03-15T09:05:29;10.20;88.90
61255;DHT22;47128;47.530;8.584;2023-03-15T09:07:54;10.90;86.10
61255;DHT22;47128;47.530;8.584;2023-03-15T09:10:20;11.20;82.70
61255;DHT22;47128;47.530;8.584;2023-03-15T09:12:50;11.20;84.10
61255;DHT22;47128;47.530;8.584;2023-03-15T09:15:17;10.80;80.30
61255;DHT22;47128;47.530;8.584;2023-03-15T09:20:48;12.70;75.50
61255;DHT22;47128;47.530;8.584;2023-03-15T09:23:14;12.90;74.90
61255;DHT22;47128;47.530;8.584;2023-03-15T09:25:40;12.80;71.00
61255;DHT22;47128;47.530;8.584;2023-03-15T09:28:07;13.20;75.00
61255;DHT22;47128;47.530;8.584;2023-03-15T09:30:33;12.60;71.00
61255;DHT22;47128;47.530;8.584;2023-03-15T09:32:59;12.50;69.60
61255;DHT22;47128;47.530;8.584;2023-03-15T09:35:25;12.60;71.20
61255;DHT22;47128;47.530;8.584;2023-03-15T09:40:57;12.70;70.30
61255;DHT22;47128;47.530;8.584;2023-03-15T09:46:33;14.00;66.20
61255;DHT22;47128;47.530;8.584;2023-03-15T09:51:58;13.40;68.70
61255;DHT22;47128;47.530;8.584;2023-03-15T09:54:26;12.40;66.00
61255;DHT22;47128;47.530;8.584;2023-03-15T10:03:00;11.60;66.00
61255;DHT22;47128;47.530;8.584;2023-03-15T10:05:34;11.70;67.70
61255;DHT22;47128;47.530;8.584;2023-03-15T10:11:20;11.50;66.30
61255;DHT22;47128;47.530;8.584;2023-03-15T10:16:43;11.90;63.50
61255;DHT22;47128;47.530;8.584;2023-03-15T10:24:18;11.70;62.40
61255;DHT22;47128;47.530;8.584;2023-03-15T10:26:44;14.20;58.00
61255;DHT22;47128;47.530;8.584;2023-03-15T10:29:24;14.60;57.60
61255;DHT22;47128;47.530;8.584;2023-03-15T10:35:15;14.00;58.70
61255;DHT22;47128;47.530;8.584;2023-03-15T10:40:46;15.70;54.40
61255;DHT22;47128;47.530;8.584;2023-03-15T10:43:28;16.10;53.80
61255;DHT22;47128;47.530;8.584;2023-03-15T10:46:06;14.40;51.60
61255;DHT22;47128;47.530;8.584;2023-03-15T10:48:33;13.50;52.00
61255;DHT22;47128;47.530;8.584;2023-03-15T10:51:06;13.40;55.30
61255;DHT22;47128;47.530;8.584;2023-03-15T11:02:24;14.60;51.60
61255;DHT22;47128;47.530;8.584;2023-03-15T11:14:00;14.80;50.70
61255;DHT22;47128;47.530;8.584;2023-03-15T11:16:28;16.60;50.00
61255;DHT22;47128;47.530;8.584;2023-03-15T11:18:59;16.70;47.30
61255;DHT22;47128;47.530;8.584;2023-03-15T11:21:31;16.50;47.90
61255;DHT22;47128;47.530;8.584;2023-03-15T11:24:00;16.60;48.00
61255;DHT22;47128;47.530;8.584;2023-03-15T11:26:27;17.00;46.90
61255;DHT22;47128;47.530;8.584;2023-03-15T11:31:55;18.80;46.00
61255;DHT22;47128;47.530;8.584;2023-03-15T11:34:36;18.60;45.60
61255;DHT22;47128;47.530;8.584;2023-03-15T11:37:17;18.30;45.40
61255;DHT22;47128;47.530;8.584;2023-03-15T11:40:01;19.00;44.10
61255;DHT22;47128;47.530;8.584;2023-03-15T11:42:32;19.10;44.00
61255;DHT22;47128;47.530;8.584;2023-03-15T11:45:00;18.40;42.80
61255;DHT22;47128;47.530;8.584;2023-03-15T11:50:17;18.60;43.80
61255;DHT22;47128;47.530;8.584;2023-03-15T12:01:23;20.60;41.70
61255;DHT22;47128;47.530;8.584;2023-03-15T12:04:27;20.70;42.40
61255;DHT22;47128;47.530;8.584;2023-03-15T12:12:43;15.30;44.70
61255;DHT22;47128;47.530;8.584;2023-03-15T12:20:39;12.40;51.60
61255;DHT22;47128;47.530;8.584;2023-03-15T12:23:12;11.80;50.30
61255;DHT22;47128;47.530;8.584;2023-03-15T12:25:47;11.40;51.10
61255;DHT22;47128;47.530;8.584;2023-03-15T12:28:20;12.90;50.70
61255;DHT22;47128;47.530;8.584;2023-03-15T12:30:50;17.20;45.90
61255;DHT22;47128;47.530;8.584;2023-03-15T12:36:36;18.90;44.40
61255;DHT22;47128;47.530;8.584;2023-03-15T12:42:05;20.00;42.40
61255;DHT22;47128;47.530;8.584;2023-03-15T12:47:10;19.50;43.40
61255;DHT22;47128;47.530;8.584;2023-03-15T12:49:43;18.60;45.20
61255;DHT22;47128;47.530;8.584;2023-03-15T12:52:25;16.10;47.40
61255;DHT22;47128;47.530;8.584;2023-03-15T12:57:23;14.00;50.30
61255;DHT22;47128;47.530;8.584;2023-03-15T12:59:59;13.80;51.30
61255;DHT22;47128;47.530;8.584;2023-03-15T13:08:23;13.20;49.60
61255;DHT22;47128;47.530;8.584;2023-03-15T13:10:52;12.90;50.70
61255;DHT22;47128;47.530;8.584;2023-03-15T13:16:35;12.40;51.80
61255;DHT22;47128;47.530;8.584;2023-03-15T13:27:49;12.30;51.50
61255;DHT22;47128;47.530;8.584;2023-03-15T13:30:23;12.50;50.90
61255;DHT22;47128;47.530;8.584;2023-03-15T13:33:03;12.50;50.70
61255;DHT22;47128;47.530;8.584;2023-03-15T13:35:29;12.90;50.20
61255;DHT22;47128;47.530;8.584;2023-03-15T13:38:06;13.10;49.80
61255;DHT22;47128;47.530;8.584;2023-03-15T13:40:32;13.10;49.10
61255;DHT22;47128;47.530;8.584;2023-03-15T13:42:58;12.80;49.80
61255;DHT22;47128;47.530;8.584;2023-03-15T13:45:25;12.40;49.50
61255;DHT22;47128;47.530;8.584;2023-03-15T13:47:52;12.10;50.40
61255;DHT22;47128;47.530;8.584;2023-03-15T13:50:19;12.00;50.00
61255;DHT22;47128;47.530;8.584;2023-03-15T13:52:45;12.10;49.30
61255;DHT22;47128;47.530;8.584;2023-03-15T13:55:12;12.20;49.80
61255;DHT22;47128;47.530;8.584;2023-03-15T13:57:37;12.10;49.20
61255;DHT22;47128;47.530;8.584;2023-03-15T14:00:06;12.00;48.50
61255;DHT22;47128;47.530;8.584;2023-03-15T14:11:45;11.90;49.00
61255;DHT22;47128;47.530;8.584;2023-03-15T14:14:24;12.00;50.40
61255;DHT22;47128;47.530;8.584;2023-03-15T14:16:52;11.90;50.40
61255;DHT22;47128;47.530;8.584;2023-03-15T14:19:22;12.00;49.70
61255;DHT22;47128;47.530;8.584;2023-03-15T14:24:52;12.30;50.10
61255;DHT22;47128;47.530;8.584;2023-03-15T14:27:19;12.20;49.90
61255;DHT22;47128;47.530;8.584;2023-03-15T14:29:46;12.20;49.60
61255;DHT22;47128;47.530;8.584;2023-03-15T14:32:24;12.40;50.70
61255;DHT22;47128;47.530;8.584;2023-03-15T14:34:56;12.50;50.70
61255;DHT22;47128;47.530;8.584;2023-03-15T14:37:30;12.30;50.10
61255;DHT22;47128;47.530;8.584;2023-03-15T14:46:04;12.10;48.30
61255;DHT22;47128;47.530;8.584;2023-03-15T14:48:30;12.10;48.50
61255;DHT22;47128;47.530;8.584;2023-03-15T14:50:56;12.20;48.50
61255;DHT22;47128;47.530;8.584;2023-03-15T14:56:29;12.20;49.10
61255;DHT22;47128;47.530;8.584;2023-03-15T14:58:54;12.20;49.70
61255;DHT22;47128;47.530;8.584;2023-03-15T15:01:23;12.00;49.70
61255;DHT22;47128;47.530;8.584;2023-03-15T15:03:52;11.90;49.90
61255;DHT22;47128;47.530;8.584;2023-03-15T15:06:18;11.80;50.10
61255;DHT22;47128;47.530;8.584;2023-03-15T15:14:52;11.70;50.20
61255;DHT22;47128;47.530;8.584;2023-03-15T15:26:13;11.00;51.00
61255;DHT22;47128;47.530;8.584;2023-03-15T15:34:47;11.40;50.70
61255;DHT22;47128;47.530;8.584;2023-03-15T15:40:20;11.30;50.70
61255;DHT22;47128;47.530;8.584;2023-03-15T15:51:51;11.30;51.60
61255;DHT22;47128;47.530;8.584;2023-03-15T16:00:23;11.20;51.90
61255;DHT22;47128;47.530;8.584;2023-03-15T16:08:56;11.20;51.80
61255;DHT22;47128;47.530;8.584;2023-03-15T16:11:22;11.10;51.10
61255;DHT22;47128;47.530;8.584;2023-03-15T16:13:48;11.00;51.40
61255;DHT22;47128;47.530;8.584;2023-03-15T16:16:20;11.00;51.50
61255;DHT22;47128;47.530;8.584;2023-03-15T16:18:46;11.00;51.80
61255;DHT22;47128;47.530;8.584;2023-03-15T16:24:25;11.00;51.50
61255;DHT22;47128;47.530;8.584;2023-03-15T16:29:58;11.00;50.60
61255;DHT22;47128;47.530;8.584;2023-03-15T16:35:31;10.90;51.30
61255;DHT22;47128;47.530;8.584;2023-03-15T16:41:01;10.40;51.40
61255;DHT22;47128;47.530;8.584;2023-03-15T16:43:28;10.30;51.90
61255;DHT22;47128;47.530;8.584;2023-03-15T16:45:53;10.10;52.00
61255;DHT22;47128;47.530;8.584;2023-03-15T16:48:19;10.00;52.00
61255;DHT22;47128;47.530;8.584;2023-03-15T16:50:45;9.80;51.20
61255;DHT22;47128;47.530;8.584;2023-03-15T16:56:15;9.70;52.40
61255;DHT22;47128;47.530;8.584;2023-03-15T16:58:41;9.60;51.80
61255;DHT22;47128;47.530;8.584;2023-03-15T17:01:08;9.60;52.20
61255;DHT22;47128;47.530;8.584;2023-03-15T17:03:34;9.60;52.40
61255;DHT22;47128;47.530;8.584;2023-03-15T17:06:00;9.50;52.40
61255;DHT22;47128;47.530;8.584;2023-03-15T17:08:26;9.40;52.40
61255;DHT22;47128;47.530;8.584;2023-03-15T17:10:52;9.40;53.10
61255;DHT22;47128;47.530;8.584;2023-03-15T17:13:22;9.40;52.40
61255;DHT22;47128;47.530;8.584;2023-03-15T17:15:49;9.30;52.60
61255;DHT22;47128;47.530;8.584;2023-03-15T17:18:16;9.30;54.30
61255;DHT22;47128;47.530;8.584;2023-03-15T17:20:42;9.20;56.40
61255;DHT22;47128;47.530;8.584;2023-03-15T17:23:08;9.00;59.40
61255;DHT22;47128;47.530;8.584;2023-03-15T17:25:37;8.90;58.20
61255;DHT22;47128;47.530;8.584;2023-03-15T17:28:06;8.70;59.30
61255;DHT22;47128;47.530;8.584;2023-03-15T17:30:33;8.60;58.30
61255;DHT22;47128;47.530;8.584;2023-03-15T17:32:59;8.40;58.70
61255;DHT22;47128;47.530;8.584;2023-03-15T17:35:29;8.30;61.60
61255;DHT22;47128;47.530;8.584;2023-03-15T17:37:55;8.20;62.50
61255;DHT22;47128;47.530;8.584;2023-03-15T17:40:24;8.10;64.90
61255;DHT22;47128;47.530;8.584;2023-03-15T17:42:51;8.00;64.80
61255;DHT22;47128;47.530;8.584;2023-03-15T17:45:18;7.90;66.30
61255;DHT22;47128;47.530;8.584;2023-03-15T17:47:47;7.80;68.30
61255;DHT22;47128;47.530;8.584;2023-03-15T17:50:14;7.70;69.90
61255;DHT22;47128;47.530;8.584;2023-03-15T17:52:40;7.60;71.40
61255;DHT22;47128;47.530;8.584;2023-03-15T17:55:15;7.40;71.60
61255;DHT22;47128;47.530;8.584;2023-03-15T17:57:41;7.40;71.50
61255;DHT22;47128;47.530;8.584;2023-03-15T18:00:07;7.30;70.90
61255;DHT22;47128;47.530;8.584;2023-03-15T18:02:34;7.30;69.70
61255;DHT22;47128;47.530;8.584;2023-03-15T18:05:00;7.30;70.90
61255;DHT22;47128;47.530;8.584;2023-03-15T18:07:25;7.30;73.80
61255;DHT22;47128;47.530;8.584;2023-03-15T18:09:53;7.20;73.30
61255;DHT22;47128;47.530;8.584;2023-03-15T18:15:22;7.10;77.40
61255;DHT22;47128;47.530;8.584;2023-03-15T18:17:48;6.80;78.30
61255;DHT22;47128;47.530;8.584;2023-03-15T18:20:15;6.70;78.50
61255;DHT22;47128;47.530;8.584;2023-03-15T18:22:40;6.70;80.60
61255;DHT22;47128;47.530;8.584;2023-03-15T18:25:07;6.60;80.10
61255;DHT22;47128;47.530;8.584;2023-03-15T18:27:32;6.60;82.90
61255;DHT22;47128;47.530;8.584;2023-03-15T18:29:58;6.50;83.60
61255;DHT22;47128;47.530;8.584;2023-03-15T18:32:25;6.30;88.50
61255;DHT22;47128;47.530;8.584;2023-03-15T18:34:52;6.30;89.00
61255;DHT22;47128;47.530;8.584;2023-03-15T18:37:18;6.20;89.50
61255;DHT22;47128;47.530;8.584;2023-03-15T18:39:44;6.10;90.50
61255;DHT22;47128;47.530;8.584;2023-03-15T18:42:09;6.00;91.00
61255;DHT22;47128;47.530;8.584;2023-03-15T18:44:35;5.90;91.60
61255;DHT22;47128;47.530;8.584;2023-03-15T18:47:01;5.90;92.80
61255;DHT22;47128;47.530;8.584;2023-03-15T18:49:28;5.90;92.60
61255;DHT22;47128;47.530;8.584;2023-03-15T18:51:54;5.90;92.50
61255;DHT22;47128;47.530;8.584;2023-03-15T18:54:21;5.90;91.10
61255;DHT22;47128;47.530;8.584;2023-03-15T18:56:52;5.90;91.60
61255;DHT22;47128;47.530;8.584;2023-03-15T18:59:18;5.90;91.20
61255;DHT22;47128;47.530;8.584;2023-03-15T19:01:44;5.70;93.00
61255;DHT22;47128;47.530;8.584;2023-03-15T19:04:09;5.70;93.20
61255;DHT22;47128;47.530;8.584;2023-03-15T19:06:35;5.70;93.50
61255;DHT22;47128;47.530;8.584;2023-03-15T19:09:02;5.70;95.00
61255;DHT22;47128;47.530;8.584;2023-03-15T19:11:29;5.50;94.60
61255;DHT22;47128;47.530;8.584;2023-03-15T19:13:55;5.50;94.30
61255;DHT22;47128;47.530;8.584;2023-03-15T19:16:21;5.50;94.90
61255;DHT22;47128;47.530;8.584;2023-03-15T19:18:47;5.50;94.50
61255;DHT22;47128;47.530;8.584;2023-03-15T19:21:14;5.50;94.40
61255;DHT22;47128;47.530;8.584;2023-03-15T19:23:39;5.30;95.80
61255;DHT22;47128;47.530;8.584;2023-03-15T19:26:05;5.30;96.60
61255;DHT22;47128;47.530;8.584;2023-03-15T19:30:57;5.20;96.80
61255;DHT22;47128;47.530;8.584;2023-03-15T19:33:23;5.20;97.10
61255;DHT22;47128;47.530;8.584;2023-03-15T19:35:48;5.00;97.70
61255;DHT22;47128;47.530;8.584;2023-03-15T19:38:14;4.90;97.80
61255;DHT22;47128;47.530;8.584;2023-03-15T19:40:39;5.00;96.90
61255;DHT22;47128;47.530;8.584;2023-03-15T19:43:05;5.00;96.80
61255;DHT22;47128;47.530;8.584;2023-03-15T19:45:31;5.00;96.90
61255;DHT22;47128;47.530;8.584;2023-03-15T19:47:57;5.00;98.20
61255;DHT22;47128;47.530;8.584;2023-03-15T19:50:23;4.90;98.40
61255;DHT22;47128;47.530;8.584;2023-03-15T19:52:49;4.80;98.70
61255;DHT22;47128;47.530;8.584;2023-03-15T19:55:15;4.70;99.30
61255;DHT22;47128;47.530;8.584;2023-03-15T19:57:42;4.60;99.60
61255;DHT22;47128;47.530;8.584;2023-03-15T20:00:08;4.50;99.60
61255;DHT22;47128;47.530;8.584;2023-03-15T20:02:40;4.40;99.40
61255;DHT22;47128;47.530;8.584;2023-03-15T20:05:06;4.40;99.90
61255;DHT22;47128;47.530;8.584;2023-03-15T20:10:02;4.30;99.90
61255;DHT22;47128;47.530;8.584;2023-03-15T20:12:28;4.30;99.90
61255;DHT22;47128;47.530;8.584;2023-03-15T20:14:54;4.20;99.40
61255;DHT22;47128;47.530;8.584;2023-03-15T20:17:19;4.30;99.00
61255;DHT22;47128;47.530;8.584;2023-03-15T20:19:45;4.30;99.00
61255;DHT22;47128;47.530;8.584;2023-03-15T20:22:11;4.30;98.60
61255;DHT22;47128;47.530;8.584;2023-03-15T20:24:36;4.30;99.90
61255;DHT22;47128;47.530;8.584;2023-03-15T20:27:02;4.30;99.90
61255;DHT22;47128;47.530;8.584;2023-03-15T20:29:28;4.20;99.90
61255;DHT22;47128;47.530;8.584;2023-03-15T20:31:54;4.20;99.90
61255;DHT22;47128;47.530;8.584;2023-03-15T20:34:20;4.00;99.90
61255;DHT22;47128;47.530;8.584;2023-03-15T20:36:46;3.90;99.90
61255;DHT22;47128;47.530;8.584;2023-03-15T20:39:12;3.90;99.90
61255;DHT22;47128;47.530;8.584;2023-03-15T20:41:38;4.00;99.90
61255;DHT22;47128;47.530;8.584;2023-03-15T20:44:03;4.00;99.90
61255;DHT22;47128;47.530;8.584;2023-03-15T20:46:29;3.90;99.90
61255;DHT22;47128;47.530;8.584;2023-03-15T20:48:55;3.70;99.90
61255;DHT22;47128;47.530;8.584;2023-03-15T20:51:21;3.70;99.90